sensor_id;sensor_type;location;lat;lon;timestamp;P1;durP1;ratioP1;P2;durP2;ratioP2
9310;SDS011;4694;52.464;13.480;2022-07-23T00:00:28;9.25;;;6.82;;
9310;SDS011;4694;52.464;13.480;2022-07-23T00:02:55;9.18;;;6.00;;
9310;SDS011;4694;52.464;13.480;2022-07-23T00:05:22;12.05;;;6.30;;
9310;SDS011;4694;52.464;13.480;2022-07-23T00:07:48;9.27;;;6.65;;
9310;SDS011;4694;52.464;13.480;2022-07-23T00:10:15;8.75;;;6.05;;
9310;SDS011;4694;52.464;13.480;2022-07-23T00:12:41;9.48;;;6.82;;
9310;SDS011;4694;52.464;13.480;2022-07-23T00:15:08;8.13;;;5.88;;
9310;SDS011;4694;52.464;13.480;2022-07-23T00:17:36;7.43;;;5.38;;
9310;SDS011;4694;52.464;13.480;2022-07-23T00:20:03;7.13;;;5.50;;
9310;SDS011;4694;52.464;13.480;2022-07-23T00:22:31;10.23;;;5.32;;
9310;SDS011;4694;52.464;13.480;2022-07-23T00:24:57;11.48;;;5.47;;
9310;SDS011;4694;52.464;13.480;2022-07-23T00:27:24;10.07;;;5.45;;
9310;SDS011;4694;52.464;13.480;2022-07-23T00:29:51;8.23;;;6.00;;
9310;SDS011;4694;52.464;13.480;2022-07-23T00:32:17;8.65;;;5.75;;
9310;SDS011;4694;52.464;13.480;2022-07-23T00:34:45;7.50;;;5.28;;
9310;SDS011;4694;52.464;13.480;2022-07-23T00:37:12;8.38;;;5.53;;
9310;SDS011;4694;52.464;13.480;2022-07-23T00:39:38;10.35;;;5.70;;
9310;SDS011;4694;52.464;13.480;2022-07-23T00:42:05;9.18;;;4.82;;
9310;SDS011;4694;52.464;13.480;2022-07-23T00:44:32;7.95;;;5.72;;
9310;SDS011;4694;52.464;13.480;2022-07-23T00:46:58;10.07;;;6.40;;
9310;SDS011;4694;52.464;13.480;2022-07-23T00:49:25;10.15;;;6.43;;
9310;SDS011;4694;52.464;13.480;2022-07-23T00:51:55;9.32;;;5.78;;
9310;SDS011;4694;52.464;13.480;2022-07-23T00:54:22;9.90;;;6.78;;
9310;SDS011;4694;52.464;13.480;2022-07-23T00:56:50;10.05;;;6.95;;
9310;SDS011;4694;52.464;13.480;2022-07-23T00:59:17;8.57;;;5.65;;
9310;SDS011;4694;52.464;13.480;2022-07-23T01:01:44;8.30;;;5.93;;
9310;SDS011;4694;52.464;13.480;2022-07-23T01:04:13;5.93;;;5.20;;
9310;SDS011;4694;52.464;13.480;2022-07-23T01:06:41;9.57;;;6.30;;
9310;SDS011;4694;52.464;13.480;2022-07-23T01:09:11;9.25;;;6.63;;
9310;SDS011;4694;52.464;13.480;2022-07-23T01:11:38;10.30;;;5.82;;
9310;SDS011;4694;52.464;13.480;2022-07-23T01:14:08;6.82;;;5.55;;
9310;SDS011;4694;52.464;13.480;2022-07-23T01:16:35;8.07;;;6.18;;
9310;SDS011;4694;52.464;13.480;2022-07-23T01:19:02;7.90;;;6.00;;
9310;SDS011;4694;52.464;13.480;2022-07-23T01:21:31;8.35;;;5.65;;
9310;SDS011;4694;52.464;13.480;2022-07-23T01:24:00;9.90;;;6.03;;
9310;SDS011;4694;52.464;13.480;2022-07-23T01:26:27;9.10;;;5.25;;
9310;SDS011;4694;52.464;13.480;2022-07-23T01:28:54;8.00;;;5.78;;
9310;SDS011;4694;52.464;13.480;2022-07-23T01:31:20;7.65;;;5.35;;
9310;SDS011;4694;52.464;13.480;2022-07-23T01:33:47;7.97;;;5.57;;
9310;SDS011;4694;52.464;13.480;2022-07-23T01:36:14;7.18;;;5.15;;
9310;SDS011;4694;52.464;13.480;2022-07-23T01:38:40;7.97;;;6.18;;
9310;SDS011;4694;52.464;13.480;2022-07-23T01:41:08;8.75;;;6.45;;
9310;SDS011;4694;52.464;13.480;2022-07-23T01:43:35;10.10;;;6.13;;
9310;SDS011;4694;52.464;13.480;2022-07-23T01:46:02;6.47;;;5.30;;
9310;SDS011;4694;52.464;13.480;2022-07-23T01:48:28;6.38;;;5.15;;
9310;SDS011;4694;52.464;13.480;2022-07-23T01:50:55;9.63;;;5.72;;
9310;SDS011;4694;52.464;13.480;2022-07-23T01:53:22;7.00;;;6.15;;
9310;SDS011;4694;52.464;13.480;2022-07-23T01:55:48;11.52;;;6.20;;
9310;SDS011;4694;52.464;13.480;2022-07-23T01:58:16;10.05;;;6.53;;
9310;SDS011;4694;52.464;13.480;2022-07-23T02:00:43;10.63;;;6.35;;
9310;SDS011;4694;52.464;13.480;2022-07-23T02:03:09;8.82;;;6.45;;
9310;SDS011;4694;52.464;13.480;2022-07-23T02:05:36;13.43;;;8.23;;
9310;SDS011;4694;52.464;13.480;2022-07-23T02:08:03;9.23;;;7.38;;
9310;SDS011;4694;52.464;13.480;2022-07-23T02:10:30;9.60;;;6.88;;
9310;SDS011;4694;52.464;13.480;2022-07-23T02:12:56;7.82;;;6.30;;
9310;SDS011;4694;52.464;13.480;2022-07-23T02:15:24;12.15;;;7.70;;
9310;SDS011;4694;52.464;13.480;2022-07-23T02:17:51;12.80;;;6.80;;
9310;SDS011;4694;52.464;13.480;2022-07-23T02:20:17;11.50;;;7.22;;
9310;SDS011;4694;52.464;13.480;2022-07-23T02:22:44;7.60;;;5.85;;
9310;SDS011;4694;52.464;13.480;2022-07-23T02:25:11;9.02;;;7.15;;
9310;SDS011;4694;52.464;13.480;2022-07-23T02:27:37;8.30;;;5.93;;
9310;SDS011;4694;52.464;13.480;2022-07-23T02:30:04;20.20;;;11.05;;
9310;SDS011;4694;52.464;13.480;2022-07-23T02:32:33;17.15;;;10.27;;
9310;SDS011;4694;52.464;13.480;2022-07-23T02:35:00;17.08;;;12.25;;
9310;SDS011;4694;52.464;13.480;2022-07-23T02:37:26;18.65;;;12.88;;
9310;SDS011;4694;52.464;13.480;2022-07-23T02:39:53;15.00;;;10.10;;
9310;SDS011;4694;52.464;13.480;2022-07-23T02:42:20;17.17;;;10.55;;
9310;SDS011;4694;52.464;13.480;2022-07-23T02:44:48;18.75;;;13.05;;
9310;SDS011;4694;52.464;13.480;2022-07-23T02:47:15;20.75;;;14.25;;
9310;SDS011;4694;52.464;13.480;2022-07-23T02:49:43;23.08;;;13.75;;
9310;SDS011;4694;52.464;13.480;2022-07-23T02:52:10;17.98;;;12.48;;
9310;SDS011;4694;52.464;13.480;2022-07-23T02:54:37;22.83;;;13.60;;
9310;SDS011;4694;52.464;13.480;2022-07-23T02:57:04;19.48;;;12.55;;
9310;SDS011;4694;52.464;13.480;2022-07-23T02:59:30;15.60;;;12.13;;
9310;SDS011;4694;52.464;13.480;2022-07-23T03:01:57;15.73;;;10.63;;
9310;SDS011;4694;52.464;13.480;2022-07-23T03:04:23;14.02;;;9.57;;
9310;SDS011;4694;52.464;13.480;2022-07-23T03:06:51;12.77;;;8.48;;
9310;SDS011;4694;52.464;13.480;2022-07-23T03:09:18;12.18;;;8.23;;
9310;SDS011;4694;52.464;13.480;2022-07-23T03:11:45;11.05;;;7.82;;
9310;SDS011;4694;52.464;13.480;2022-07-23T03:14:11;11.48;;;7.50;;
9310;SDS011;4694;52.464;13.480;2022-07-23T03:16:38;12.88;;;8.88;;
9310;SDS011;4694;52.464;13.480;2022-07-23T03:19:05;12.40;;;9.80;;
9310;SDS011;4694;52.464;13.480;2022-07-23T03:21:31;12.93;;;8.00;;
9310;SDS011;4694;52.464;13.480;2022-07-23T03:24:00;13.60;;;7.90;;
9310;SDS011;4694;52.464;13.480;2022-07-23T03:26:26;13.23;;;7.10;;
9310;SDS011;4694;52.464;13.480;2022-07-23T03:28:53;9.40;;;6.63;;
9310;SDS011;4694;52.464;13.480;2022-07-23T03:31:20;9.68;;;6.70;;
9310;SDS011;4694;52.464;13.480;2022-07-23T03:33:46;17.15;;;6.78;;
9310;SDS011;4694;52.464;13.480;2022-07-23T03:36:13;6.82;;;6.03;;
9310;SDS011;4694;52.464;13.480;2022-07-23T03:38:39;7.38;;;5.40;;
9310;SDS011;4694;52.464;13.480;2022-07-23T03:41:07;12.00;;;6.55;;
9310;SDS011;4694;52.464;13.480;2022-07-23T03:43:34;8.88;;;5.65;;
9310;SDS011;4694;52.464;13.480;2022-07-23T03:46:00;5.60;;;5.05;;
9310;SDS011;4694;52.464;13.480;2022-07-23T03:48:27;11.52;;;5.63;;
9310;SDS011;4694;52.464;13.480;2022-07-23T03:50:54;10.23;;;5.60;;
9310;SDS011;4694;52.464;13.480;2022-07-23T03:53:20;14.70;;;6.85;;
9310;SDS011;4694;52.464;13.480;2022-07-23T03:55:47;7.22;;;5.43;;
9310;SDS011;4694;52.464;13.480;2022-07-23T03:58:15;10.63;;;5.65;;
9310;SDS011;4694;52.464;13.480;2022-07-23T04:00:41;10.52;;;6.75;;
9310;SDS011;4694;52.464;13.480;2022-07-23T04:03:08;7.90;;;5.53;;
9310;SDS011;4694;52.464;13.480;2022-07-23T04:05:35;8.75;;;4.97;;
9310;SDS011;4694;52.464;13.480;2022-07-23T04:08:01;8.20;;;4.60;;
9310;SDS011;4694;52.464;13.480;2022-07-23T04:10:28;8.20;;;5.40;;
9310;SDS011;4694;52.464;13.480;2022-07-23T04:12:54;9.18;;;5.15;;
9310;SDS011;4694;52.464;13.480;2022-07-23T04:15:22;9.38;;;5.22;;
9310;SDS011;4694;52.464;13.480;2022-07-23T04:17:49;6.78;;;4.75;;
9310;SDS011;4694;52.464;13.480;2022-07-23T04:20:16;6.15;;;4.13;;
9310;SDS011;4694;52.464;13.480;2022-07-23T04:22:42;7.07;;;4.93;;
9310;SDS011;4694;52.464;13.480;2022-07-23T04:25:09;9.40;;;4.63;;
9310;SDS011;4694;52.464;13.480;2022-07-23T04:27:35;8.48;;;5.13;;
9310;SDS011;4694;52.464;13.480;2022-07-23T04:30:02;9.93;;;5.13;;
9310;SDS011;4694;52.464;13.480;2022-07-23T04:32:31;7.47;;;5.60;;
9310;SDS011;4694;52.464;13.480;2022-07-23T04:34:58;6.43;;;4.25;;
9310;SDS011;4694;52.464;13.480;2022-07-23T04:37:24;7.75;;;5.07;;
9310;SDS011;4694;52.464;13.480;2022-07-23T04:39:51;8.27;;;3.78;;
9310;SDS011;4694;52.464;13.480;2022-07-23T04:42:17;8.35;;;3.95;;
9310;SDS011;4694;52.464;13.480;2022-07-23T04:44:44;8.35;;;3.92;;
9310;SDS011;4694;52.464;13.480;2022-07-23T04:47:11;8.52;;;4.72;;
9310;SDS011;4694;52.464;13.480;2022-07-23T04:49:39;10.68;;;4.60;;
9310;SDS011;4694;52.464;13.480;2022-07-23T04:52:05;8.82;;;4.88;;
9310;SDS011;4694;52.464;13.480;2022-07-23T04:54:32;8.70;;;5.47;;
9310;SDS011;4694;52.464;13.480;2022-07-23T04:56:58;13.80;;;6.05;;
9310;SDS011;4694;52.464;13.480;2022-07-23T04:59:25;6.53;;;4.47;;
9310;SDS011;4694;52.464;13.480;2022-07-23T05:01:52;8.05;;;4.90;;
9310;SDS011;4694;52.464;13.480;2022-07-23T05:04:18;9.35;;;5.00;;
9310;SDS011;4694;52.464;13.480;2022-07-23T05:06:46;9.52;;;5.35;;
9310;SDS011;4694;52.464;13.480;2022-07-23T05:09:13;10.82;;;4.72;;
9310;SDS011;4694;52.464;13.480;2022-07-23T05:11:39;13.02;;;4.65;;
9310;SDS011;4694;52.464;13.480;2022-07-23T05:14:06;6.70;;;4.25;;
9310;SDS011;4694;52.464;13.480;2022-07-23T05:16:33;9.90;;;4.07;;
9310;SDS011;4694;52.464;13.480;2022-07-23T05:18:59;7.35;;;4.20;;
9310;SDS011;4694;52.464;13.480;2022-07-23T05:21:26;7.45;;;4.57;;
9310;SDS011;4694;52.464;13.480;2022-07-23T05:23:54;7.85;;;4.30;;
9310;SDS011;4694;52.464;13.480;2022-07-23T05:26:20;31.65;;;7.15;;
9310;SDS011;4694;52.464;13.480;2022-07-23T05:28:47;9.27;;;4.43;;
9310;SDS011;4694;52.464;13.480;2022-07-23T05:31:14;11.63;;;6.15;;
9310;SDS011;4694;52.464;13.480;2022-07-23T05:33:40;5.57;;;4.15;;
9310;SDS011;4694;52.464;13.480;2022-07-23T05:36:07;8.93;;;5.40;;
9310;SDS011;4694;52.464;13.480;2022-07-23T05:38:34;8.82;;;5.00;;
9310;SDS011;4694;52.464;13.480;2022-07-23T05:41:02;14.35;;;6.22;;
9310;SDS011;4694;52.464;13.480;2022-07-23T05:43:29;10.73;;;4.47;;
9310;SDS011;4694;52.464;13.480;2022-07-23T05:45:55;11.80;;;5.35;;
9310;SDS011;4694;52.464;13.480;2022-07-23T05:48:22;8.23;;;4.03;;
9310;SDS011;4694;52.464;13.480;2022-07-23T05:50:48;8.00;;;4.95;;
9310;SDS011;4694;52.464;13.480;2022-07-23T05:53:15;8.05;;;4.47;;
9310;SDS011;4694;52.464;13.480;2022-07-23T05:55:42;11.23;;;5.03;;
9310;SDS011;4694;52.464;13.480;2022-07-23T05:58:10;10.20;;;5.15;;
9310;SDS011;4694;52.464;13.480;2022-07-23T06:00:37;7.75;;;5.25;;
9310;SDS011;4694;52.464;13.480;2022-07-23T06:03:04;11.38;;;5.00;;
9310;SDS011;4694;52.464;13.480;2022-07-23T06:05:30;9.38;;;4.75;;
9310;SDS011;4694;52.464;13.480;2022-07-23T06:07:57;9.38;;;4.95;;
9310;SDS011;4694;52.464;13.480;2022-07-23T06:10:24;7.57;;;5.82;;
9310;SDS011;4694;52.464;13.480;2022-07-23T06:12:51;12.48;;;5.78;;
9310;SDS011;4694;52.464;13.480;2022-07-23T06:15:19;9.18;;;5.35;;
9310;SDS011;4694;52.464;13.480;2022-07-23T06:17:46;10.50;;;5.53;;
9310;SDS011;4694;52.464;13.480;2022-07-23T06:20:12;12.15;;;5.95;;
9310;SDS011;4694;52.464;13.480;2022-07-23T06:22:39;11.57;;;5.75;;
9310;SDS011;4694;52.464;13.480;2022-07-23T06:25:06;9.40;;;6.20;;
9310;SDS011;4694;52.464;13.480;2022-07-23T06:27:33;13.30;;;5.50;;
9310;SDS011;4694;52.464;13.480;2022-07-23T06:30:00;12.15;;;5.72;;
9310;SDS011;4694;52.464;13.480;2022-07-23T06:32:28;7.40;;;4.15;;
9310;SDS011;4694;52.464;13.480;2022-07-23T06:34:54;11.43;;;6.72;;
9310;SDS011;4694;52.464;13.480;2022-07-23T06:37:21;14.48;;;5.97;;
9310;SDS011;4694;52.464;13.480;2022-07-23T06:39:48;9.80;;;5.15;;
9310;SDS011;4694;52.464;13.480;2022-07-23T06:42:15;7.40;;;5.85;;
9310;SDS011;4694;52.464;13.480;2022-07-23T06:44:41;11.07;;;6.07;;
9310;SDS011;4694;52.464;13.480;2022-07-23T06:47:08;7.10;;;5.20;;
9310;SDS011;4694;52.464;13.480;2022-07-23T06:49:36;14.18;;;5.65;;
9310;SDS011;4694;52.464;13.480;2022-07-23T06:52:03;13.40;;;6.93;;
9310;SDS011;4694;52.464;13.480;2022-07-23T06:54:30;15.57;;;6.63;;
9310;SDS011;4694;52.464;13.480;2022-07-23T06:56:56;12.60;;;5.50;;
9310;SDS011;4694;52.464;13.480;2022-07-23T06:59:23;12.30;;;5.47;;
9310;SDS011;4694;52.464;13.480;2022-07-23T07:01:49;11.45;;;5.30;;
9310;SDS011;4694;52.464;13.480;2022-07-23T07:04:16;8.43;;;4.25;;
9310;SDS011;4694;52.464;13.480;2022-07-23T07:06:44;10.65;;;4.50;;
9310;SDS011;4694;52.464;13.480;2022-07-23T07:09:11;9.95;;;4.18;;
9310;SDS011;4694;52.464;13.480;2022-07-23T07:11:37;6.82;;;4.15;;
9310;SDS011;4694;52.464;13.480;2022-07-23T07:14:04;10.77;;;4.75;;
9310;SDS011;4694;52.464;13.480;2022-07-23T07:16:31;8.73;;;4.70;;
9310;SDS011;4694;52.464;13.480;2022-07-23T07:18:58;7.97;;;4.30;;
9310;SDS011;4694;52.464;13.480;2022-07-23T07:21:25;8.35;;;5.07;;
9310;SDS011;4694;52.464;13.480;2022-07-23T07:23:53;9.68;;;5.13;;
9310;SDS011;4694;52.464;13.480;2022-07-23T07:26:19;11.68;;;5.43;;
9310;SDS011;4694;52.464;13.480;2022-07-23T07:28:46;11.02;;;5.05;;
9310;SDS011;4694;52.464;13.480;2022-07-23T07:31:12;7.28;;;3.95;;
9310;SDS011;4694;52.464;13.480;2022-07-23T07:33:39;10.35;;;4.63;;
9310;SDS011;4694;52.464;13.480;2022-07-23T07:36:06;9.77;;;4.25;;
9310;SDS011;4694;52.464;13.480;2022-07-23T07:38:33;7.53;;;4.53;;
9310;SDS011;4694;52.464;13.480;2022-07-23T07:41:01;8.52;;;5.80;;
9310;SDS011;4694;52.464;13.480;2022-07-23T07:43:28;8.80;;;3.97;;
9310;SDS011;4694;52.464;13.480;2022-07-23T07:45:54;7.97;;;4.00;;
9310;SDS011;4694;52.464;13.480;2022-07-23T07:48:21;7.82;;;4.50;;
9310;SDS011;4694;52.464;13.480;2022-07-23T07:50:48;8.90;;;4.68;;
9310;SDS011;4694;52.464;13.480;2022-07-23T07:53:14;8.45;;;4.00;;
9310;SDS011;4694;52.464;13.480;2022-07-23T07:55:41;8.82;;;4.03;;
9310;SDS011;4694;52.464;13.480;2022-07-23T07:58:09;6.85;;;3.92;;
9310;SDS011;4694;52.464;13.480;2022-07-23T08:00:35;9.48;;;4.07;;
9310;SDS011;4694;52.464;13.480;2022-07-23T08:03:02;9.63;;;4.05;;
9310;SDS011;4694;52.464;13.480;2022-07-23T08:05:29;39.45;;;19.48;;
9310;SDS011;4694;52.464;13.480;2022-07-23T08:07:57;9.23;;;4.25;;
9310;SDS011;4694;52.464;13.480;2022-07-23T08:10:24;7.53;;;3.63;;
9310;SDS011;4694;52.464;13.480;2022-07-23T08:12:55;7.30;;;4.03;;
9310;SDS011;4694;52.464;13.480;2022-07-23T08:15:24;5.57;;;3.38;;
9310;SDS011;4694;52.464;13.480;2022-07-23T08:17:52;8.20;;;4.55;;
9310;SDS011;4694;52.464;13.480;2022-07-23T08:20:20;6.70;;;3.58;;
9310;SDS011;4694;52.464;13.480;2022-07-23T08:22:48;6.70;;;3.90;;
9310;SDS011;4694;52.464;13.480;2022-07-23T08:25:19;9.00;;;3.88;;
9310;SDS011;4694;52.464;13.480;2022-07-23T08:27:47;7.85;;;4.00;;
9310;SDS011;4694;52.464;13.480;2022-07-23T08:30:14;5.10;;;4.43;;
9310;SDS011;4694;52.464;13.480;2022-07-23T08:32:52;6.35;;;4.13;;
9310;SDS011;4694;52.464;13.480;2022-07-23T08:35:24;4.53;;;4.13;;
9310;SDS011;4694;52.464;13.480;2022-07-23T08:37:52;6.53;;;4.15;;
9310;SDS011;4694;52.464;13.480;2022-07-23T08:40:18;6.95;;;4.30;;
9310;SDS011;4694;52.464;13.480;2022-07-23T08:42:47;5.90;;;3.92;;
9310;SDS011;4694;52.464;13.480;2022-07-23T08:45:15;6.82;;;3.97;;
9310;SDS011;4694;52.464;13.480;2022-07-23T08:47:44;7.38;;;4.28;;
9310;SDS011;4694;52.464;13.480;2022-07-23T08:50:12;8.38;;;5.22;;
9310;SDS011;4694;52.464;13.480;2022-07-23T08:52:40;8.88;;;4.07;;
9310;SDS011;4694;52.464;13.480;2022-07-23T08:55:07;8.32;;;4.35;;
9310;SDS011;4694;52.464;13.480;2022-07-23T08:57:34;6.68;;;4.72;;
9310;SDS011;4694;52.464;13.480;2022-07-23T09:00:01;6.80;;;3.50;;
9310;SDS011;4694;52.464;13.480;2022-07-23T09:02:28;7.25;;;3.40;;
9310;SDS011;4694;52.464;13.480;2022-07-23T09:04:55;6.97;;;3.35;;
9310;SDS011;4694;52.464;13.480;2022-07-23T09:07:23;8.23;;;3.25;;
9310;SDS011;4694;52.464;13.480;2022-07-23T09:09:56;4.53;;;3.25;;
9310;SDS011;4694;52.464;13.480;2022-07-23T09:12:32;4.63;;;2.97;;
9310;SDS011;4694;52.464;13.480;2022-07-23T09:15:03;5.35;;;3.25;;
9310;SDS011;4694;52.464;13.480;2022-07-23T09:17:36;7.35;;;3.17;;
9310;SDS011;4694;52.464;13.480;2022-07-23T09:20:07;5.57;;;3.53;;
9310;SDS011;4694;52.464;13.480;2022-07-23T09:22:36;4.45;;;3.85;;
9310;SDS011;4694;52.464;13.480;2022-07-23T09:25:07;7.68;;;3.42;;
9310;SDS011;4694;52.464;13.480;2022-07-23T09:27:45;5.32;;;3.47;;
9310;SDS011;4694;52.464;13.480;2022-07-23T09:30:17;5.80;;;3.53;;
9310;SDS011;4694;52.464;13.480;2022-07-23T09:32:51;4.00;;;3.13;;
9310;SDS011;4694;52.464;13.480;2022-07-23T09:35:43;6.13;;;3.65;;
9310;SDS011;4694;52.464;13.480;2022-07-23T09:38:12;7.10;;;3.85;;
9310;SDS011;4694;52.464;13.480;2022-07-23T09:40:39;5.13;;;3.97;;
9310;SDS011;4694;52.464;13.480;2022-07-23T09:43:06;6.57;;;3.40;;
9310;SDS011;4694;52.464;13.480;2022-07-23T09:45:33;4.10;;;2.85;;
9310;SDS011;4694;52.464;13.480;2022-07-23T09:48:09;5.55;;;2.78;;
9310;SDS011;4694;52.464;13.480;2022-07-23T09:50:37;6.82;;;3.13;;
9310;SDS011;4694;52.464;13.480;2022-07-23T09:53:03;5.28;;;3.00;;
9310;SDS011;4694;52.464;13.480;2022-07-23T09:55:32;5.80;;;2.92;;
9310;SDS011;4694;52.464;13.480;2022-07-23T09:58:02;4.95;;;2.78;;
9310;SDS011;4694;52.464;13.480;2022-07-23T10:00:29;3.15;;;2.63;;
9310;SDS011;4694;52.464;13.480;2022-07-23T10:02:57;5.88;;;3.00;;
9310;SDS011;4694;52.464;13.480;2022-07-23T10:05:25;4.85;;;2.90;;
9310;SDS011;4694;52.464;13.480;2022-07-23T10:07:52;3.65;;;3.05;;
9310;SDS011;4694;52.464;13.480;2022-07-23T10:10:20;7.70;;;3.60;;
9310;SDS011;4694;52.464;13.480;2022-07-23T10:12:49;5.97;;;3.20;;
9310;SDS011;4694;52.464;13.480;2022-07-23T10:15:31;4.20;;;3.50;;
9310;SDS011;4694;52.464;13.480;2022-07-23T10:17:58;4.03;;;3.67;;
9310;SDS011;4694;52.464;13.480;2022-07-23T10:20:26;5.75;;;3.25;;
9310;SDS011;4694;52.464;13.480;2022-07-23T10:22:55;4.97;;;2.80;;
9310;SDS011;4694;52.464;13.480;2022-07-23T10:25:32;7.60;;;3.45;;
9310;SDS011;4694;52.464;13.480;2022-07-23T10:31:09;7.13;;;4.05;;
9310;SDS011;4694;52.464;13.480;2022-07-23T10:33:45;5.22;;;3.22;;
9310;SDS011;4694;52.464;13.480;2022-07-23T10:36:22;5.97;;;2.88;;
9310;SDS011;4694;52.464;13.480;2022-07-23T10:38:57;3.72;;;2.78;;
9310;SDS011;4694;52.464;13.480;2022-07-23T10:41:30;6.20;;;3.25;;
9310;SDS011;4694;52.464;13.480;2022-07-23T10:44:12;6.15;;;3.17;;
9310;SDS011;4694;52.464;13.480;2022-07-23T10:46:53;4.70;;;2.97;;
9310;SDS011;4694;52.464;13.480;2022-07-23T10:49:47;4.72;;;2.67;;
9310;SDS011;4694;52.464;13.480;2022-07-23T10:52:17;2.70;;;2.45;;
9310;SDS011;4694;52.464;13.480;2022-07-23T10:54:45;3.47;;;2.70;;
9310;SDS011;4694;52.464;13.480;2022-07-23T10:57:14;5.70;;;3.20;;
9310;SDS011;4694;52.464;13.480;2022-07-23T11:02:47;5.70;;;2.80;;
9310;SDS011;4694;52.464;13.480;2022-07-23T11:05:15;5.95;;;2.95;;
9310;SDS011;4694;52.464;13.480;2022-07-23T11:10:51;3.75;;;2.88;;
9310;SDS011;4694;52.464;13.480;2022-07-23T11:13:29;4.32;;;2.35;;
9310;SDS011;4694;52.464;13.480;2022-07-23T11:16:21;3.33;;;2.97;;
9310;SDS011;4694;52.464;13.480;2022-07-23T11:18:53;4.57;;;2.08;;
9310;SDS011;4694;52.464;13.480;2022-07-23T11:21:46;6.32;;;2.40;;
9310;SDS011;4694;52.464;13.480;2022-07-23T11:24:15;3.95;;;2.92;;
9310;SDS011;4694;52.464;13.480;2022-07-23T11:35:24;4.95;;;2.72;;
9310;SDS011;4694;52.464;13.480;2022-07-23T11:37:52;4.45;;;2.60;;
9310;SDS011;4694;52.464;13.480;2022-07-23T11:40:24;3.97;;;2.97;;
9310;SDS011;4694;52.464;13.480;2022-07-23T11:42:52;4.32;;;2.83;;
9310;SDS011;4694;52.464;13.480;2022-07-23T11:45:21;4.28;;;2.72;;
9310;SDS011;4694;52.464;13.480;2022-07-23T11:47:50;4.10;;;2.78;;
9310;SDS011;4694;52.464;13.480;2022-07-23T11:50:17;5.20;;;2.58;;
9310;SDS011;4694;52.464;13.480;2022-07-23T11:52:44;3.03;;;2.03;;
9310;SDS011;4694;52.464;13.480;2022-07-23T11:55:11;3.38;;;2.35;;
9310;SDS011;4694;52.464;13.480;2022-07-23T11:57:41;2.80;;;2.42;;
9310;SDS011;4694;52.464;13.480;2022-07-23T12:00:09;4.57;;;2.80;;
9310;SDS011;4694;52.464;13.480;2022-07-23T12:02:37;3.73;;;2.23;;
9310;SDS011;4694;52.464;13.480;2022-07-23T12:05:06;3.72;;;2.38;;
9310;SDS011;4694;52.464;13.480;2022-07-23T12:07:34;3.85;;;1.80;;
9310;SDS011;4694;52.464;13.480;2022-07-23T12:10:03;3.28;;;2.53;;
9310;SDS011;4694;52.464;13.480;2022-07-23T12:12:35;3.88;;;2.45;;
9310;SDS011;4694;52.464;13.480;2022-07-23T12:15:04;3.08;;;2.30;;
9310;SDS011;4694;52.464;13.480;2022-07-23T12:17:32;2.90;;;2.38;;
9310;SDS011;4694;52.464;13.480;2022-07-23T12:20:01;2.38;;;2.15;;
9310;SDS011;4694;52.464;13.480;2022-07-23T12:22:34;6.20;;;3.42;;
9310;SDS011;4694;52.464;13.480;2022-07-23T12:25:03;4.20;;;2.80;;
9310;SDS011;4694;52.464;13.480;2022-07-23T12:27:32;3.05;;;2.22;;
9310;SDS011;4694;52.464;13.480;2022-07-23T12:29:58;4.45;;;2.55;;
9310;SDS011;4694;52.464;13.480;2022-07-23T12:32:26;6.18;;;3.17;;
9310;SDS011;4694;52.464;13.480;2022-07-23T12:35:04;4.15;;;2.42;;
9310;SDS011;4694;52.464;13.480;2022-07-23T12:37:34;3.63;;;2.50;;
9310;SDS011;4694;52.464;13.480;2022-07-23T12:40:24;4.45;;;3.05;;
9310;SDS011;4694;52.464;13.480;2022-07-23T12:42:53;5.78;;;3.60;;
9310;SDS011;4694;52.464;13.480;2022-07-23T12:45:21;5.33;;;3.20;;
9310;SDS011;4694;52.464;13.480;2022-07-23T12:48:04;4.03;;;3.38;;
9310;SDS011;4694;52.464;13.480;2022-07-23T12:50:39;4.85;;;4.07;;
9310;SDS011;4694;52.464;13.480;2022-07-23T12:53:10;4.35;;;2.42;;
9310;SDS011;4694;52.464;13.480;2022-07-23T12:55:40;4.53;;;3.15;;
9310;SDS011;4694;52.464;13.480;2022-07-23T12:58:08;4.43;;;2.92;;
9310;SDS011;4694;52.464;13.480;2022-07-23T13:00:55;5.10;;;2.92;;
9310;SDS011;4694;52.464;13.480;2022-07-23T13:03:25;5.00;;;3.35;;
9310;SDS011;4694;52.464;13.480;2022-07-23T13:05:53;4.10;;;3.00;;
9310;SDS011;4694;52.464;13.480;2022-07-23T13:08:21;4.05;;;2.60;;
9310;SDS011;4694;52.464;13.480;2022-07-23T13:10:49;5.55;;;3.38;;
9310;SDS011;4694;52.464;13.480;2022-07-23T13:13:16;3.63;;;2.95;;
9310;SDS011;4694;52.464;13.480;2022-07-23T13:18:12;4.18;;;2.67;;
9310;SDS011;4694;52.464;13.480;2022-07-23T13:20:39;4.75;;;2.78;;
9310;SDS011;4694;52.464;13.480;2022-07-23T13:23:06;3.50;;;2.80;;
9310;SDS011;4694;52.464;13.480;2022-07-23T13:25:34;5.28;;;3.03;;
9310;SDS011;4694;52.464;13.480;2022-07-23T13:28:01;4.10;;;2.58;;
9310;SDS011;4694;52.464;13.480;2022-07-23T13:30:28;4.82;;;3.45;;
9310;SDS011;4694;52.464;13.480;2022-07-23T13:32:55;3.47;;;2.22;;
9310;SDS011;4694;52.464;13.480;2022-07-23T13:35:22;3.10;;;2.90;;
9310;SDS011;4694;52.464;13.480;2022-07-23T13:37:49;3.30;;;2.55;;
9310;SDS011;4694;52.464;13.480;2022-07-23T13:40:16;2.85;;;2.63;;
9310;SDS011;4694;52.464;13.480;2022-07-23T13:42:44;3.30;;;2.78;;
9310;SDS011;4694;52.464;13.480;2022-07-23T13:45:10;4.03;;;2.50;;
9310;SDS011;4694;52.464;13.480;2022-07-23T13:47:37;3.83;;;2.40;;
9310;SDS011;4694;52.464;13.480;2022-07-23T13:50:04;3.08;;;2.78;;
9310;SDS011;4694;52.464;13.480;2022-07-23T13:52:31;3.20;;;2.35;;
9310;SDS011;4694;52.464;13.480;2022-07-23T13:54:59;2.75;;;2.55;;
9310;SDS011;4694;52.464;13.480;2022-07-23T13:57:26;4.57;;;2.17;;
9310;SDS011;4694;52.464;13.480;2022-07-23T13:59:54;3.03;;;2.67;;
9310;SDS011;4694;52.464;13.480;2022-07-23T14:02:21;3.58;;;2.50;;
9310;SDS011;4694;52.464;13.480;2022-07-23T14:04:47;3.10;;;2.60;;
9310;SDS011;4694;52.464;13.480;2022-07-23T14:07:14;3.85;;;2.33;;
9310;SDS011;4694;52.464;13.480;2022-07-23T14:09:41;3.08;;;2.28;;
9310;SDS011;4694;52.464;13.480;2022-07-23T14:12:08;2.40;;;2.00;;
9310;SDS011;4694;52.464;13.480;2022-07-23T14:14:35;3.42;;;2.40;;
9310;SDS011;4694;52.464;13.480;2022-07-23T14:17:03;6.22;;;2.95;;
9310;SDS011;4694;52.464;13.480;2022-07-23T14:19:30;2.92;;;2.22;;
9310;SDS011;4694;52.464;13.480;2022-07-23T14:21:56;4.50;;;2.95;;
9310;SDS011;4694;52.464;13.480;2022-07-23T14:24:23;4.57;;;3.15;;
9310;SDS011;4694;52.464;13.480;2022-07-23T14:26:50;7.35;;;2.70;;
9310;SDS011;4694;52.464;13.480;2022-07-23T14:29:16;6.22;;;2.65;;
9310;SDS011;4694;52.464;13.480;2022-07-23T14:31:43;3.97;;;3.05;;
9310;SDS011;4694;52.464;13.480;2022-07-23T14:34:12;2.58;;;2.38;;
9310;SDS011;4694;52.464;13.480;2022-07-23T14:36:38;3.07;;;2.77;;
9310;SDS011;4694;52.464;13.480;2022-07-23T14:39:05;3.03;;;2.20;;
9310;SDS011;4694;52.464;13.480;2022-07-23T14:41:33;3.83;;;2.67;;
9310;SDS011;4694;52.464;13.480;2022-07-23T14:44:00;4.00;;;2.08;;
9310;SDS011;4694;52.464;13.480;2022-07-23T14:46:27;2.95;;;2.35;;
9310;SDS011;4694;52.464;13.480;2022-07-23T14:48:53;2.63;;;2.42;;
9310;SDS011;4694;52.464;13.480;2022-07-23T14:51:21;2.90;;;2.05;;
9310;SDS011;4694;52.464;13.480;2022-07-23T14:53:48;4.25;;;2.33;;
9310;SDS011;4694;52.464;13.480;2022-07-23T14:56:15;2.35;;;2.10;;
9310;SDS011;4694;52.464;13.480;2022-07-23T14:58:43;4.05;;;2.45;;
9310;SDS011;4694;52.464;13.480;2022-07-23T15:01:09;5.70;;;2.20;;
9310;SDS011;4694;52.464;13.480;2022-07-23T15:03:36;4.70;;;2.42;;
9310;SDS011;4694;52.464;13.480;2022-07-23T15:06:03;4.40;;;2.33;;
9310;SDS011;4694;52.464;13.480;2022-07-23T15:08:32;4.03;;;1.58;;
9310;SDS011;4694;52.464;13.480;2022-07-23T15:10:59;2.35;;;1.88;;
9310;SDS011;4694;52.464;13.480;2022-07-23T15:13:25;1.90;;;1.30;;
9310;SDS011;4694;52.464;13.480;2022-07-23T15:15:52;2.97;;;2.05;;
9310;SDS011;4694;52.464;13.480;2022-07-23T15:18:18;3.10;;;1.73;;
9310;SDS011;4694;52.464;13.480;2022-07-23T15:20:45;3.33;;;1.60;;
9310;SDS011;4694;52.464;13.480;2022-07-23T15:23:11;2.00;;;1.50;;